sensor_id;sensor_type;location;lat;lon;timestamp;pressure;altitude;pressure_sealevel;temperature;humidity
55424;BME280;41294;42.666;23.350;2023-08-08T00:02:04;94762.72;;;19.00;91.11
55424;BME280;41294;42.666;23.350;2023-08-08T00:04:30;94762.28;;;18.91;90.12
55424;BME280;41294;42.666;23.350;2023-08-08T00:06:56;94774.72;;;18.83;89.85
55424;BME280;41294;42.666;23.350;2023-08-08T00:09:21;94768.13;;;18.90;88.86
55424;BME280;41294;42.666;23.350;2023-08-08T00:11:47;94774.25;;;18.79;88.62
55424;BME280;41294;42.666;23.350;2023-08-08T00:14:13;94768.53;;;18.64;89.04
55424;BME280;41294;42.666;23.350;2023-08-08T00:16:38;94762.19;;;18.67;88.22
55424;BME280;41294;42.666;23.350;2023-08-08T00:19:04;94758.38;;;18.57;88.11
55424;BME280;41294;42.666;23.350;2023-08-08T00:21:30;94777.78;;;18.52;88.13
55424;BME280;41294;42.666;23.350;2023-08-08T00:23:55;94766.50;;;18.30;88.14
55424;BME280;41294;42.666;23.350;2023-08-08T00:26:21;94768.91;;;18.33;88.22
55424;BME280;41294;42.666;23.350;2023-08-08T00:28:46;94777.38;;;18.37;87.05
55424;BME280;41294;42.666;23.350;2023-08-08T00:31:11;94781.03;;;18.29;87.26
55424;BME280;41294;42.666;23.350;2023-08-08T00:33:37;94779.84;;;18.24;88.30
55424;BME280;41294;42.666;23.350;2023-08-08T00:36:02;94779.13;;;18.29;88.02
55424;BME280;41294;42.666;23.350;2023-08-08T00:38:28;94790.50;;;18.13;86.85
55424;BME280;41294;42.666;23.350;2023-08-08T00:40:53;94788.81;;;18.16;88.26
55424;BME280;41294;42.666;23.350;2023-08-08T00:43:19;94784.47;;;18.08;88.54
55424;BME280;41294;42.666;23.350;2023-08-08T00:45:44;94778.66;;;18.09;88.47
55424;BME280;41294;42.666;23.350;2023-08-08T00:48:10;94775.53;;;18.00;88.34
55424;BME280;41294;42.666;23.350;2023-08-08T00:50:37;94784.25;;;17.95;88.66
55424;BME280;41294;42.666;23.350;2023-08-08T00:53:05;94789.06;;;18.13;87.36
55424;BME280;41294;42.666;23.350;2023-08-08T00:55:31;94791.00;;;18.07;87.69
55424;BME280;41294;42.666;23.350;2023-08-08T00:57:56;94794.19;;;18.05;88.28
55424;BME280;41294;42.666;23.350;2023-08-08T01:00:22;94798.03;;;18.15;87.06
55424;BME280;41294;42.666;23.350;2023-08-08T01:02:47;94795.88;;;18.03;87.81
55424;BME280;41294;42.666;23.350;2023-08-08T01:05:13;94794.66;;;18.04;87.87
55424;BME280;41294;42.666;23.350;2023-08-08T01:07:49;94788.84;;;18.05;86.24
55424;BME280;41294;42.666;23.350;2023-08-08T01:10:23;94794.16;;;18.11;85.86
55424;BME280;41294;42.666;23.350;2023-08-08T01:12:56;94801.44;;;17.99;85.66
55424;BME280;41294;42.666;23.350;2023-08-08T01:15:25;94803.16;;;17.97;85.72
55424;BME280;41294;42.666;23.350;2023-08-08T01:17:52;94797.59;;;17.89;85.26
55424;BME280;41294;42.666;23.350;2023-08-08T01:20:18;94799.31;;;17.76;85.96
55424;BME280;41294;42.666;23.350;2023-08-08T01:25:23;94809.72;;;17.63;87.49
55424;BME280;41294;42.666;23.350;2023-08-08T01:27:48;94806.34;;;17.62;87.56
55424;BME280;41294;42.666;23.350;2023-08-08T01:30:14;94808.03;;;17.71;87.39
55424;BME280;41294;42.666;23.350;2023-08-08T01:32:40;94801.75;;;17.68;87.36
55424;BME280;41294;42.666;23.350;2023-08-08T01:35:06;94813.13;;;17.58;86.81
55424;BME280;41294;42.666;23.350;2023-08-08T01:37:52;94812.16;;;17.39;87.92
55424;BME280;41294;42.666;23.350;2023-08-08T01:40:19;94824.25;;;17.51;87.90
55424;BME280;41294;42.666;23.350;2023-08-08T01:42:47;94822.56;;;17.59;87.90
55424;BME280;41294;42.666;23.350;2023-08-08T01:45:14;94835.38;;;17.44;88.17
55424;BME280;41294;42.666;23.350;2023-08-08T01:47:40;94841.94;;;17.65;87.68
55424;BME280;41294;42.666;23.350;2023-08-08T01:50:05;94838.78;;;17.50;87.64
55424;BME280;41294;42.666;23.350;2023-08-08T01:52:31;94848.22;;;17.45;88.22
55424;BME280;41294;42.666;23.350;2023-08-08T01:54:56;94856.91;;;17.35;88.49
55424;BME280;41294;42.666;23.350;2023-08-08T01:57:22;94865.09;;;17.26;88.91
55424;BME280;41294;42.666;23.350;2023-08-08T01:59:47;94864.16;;;17.34;89.03
55424;BME280;41294;42.666;23.350;2023-08-08T02:02:13;94863.66;;;17.31;89.30
55424;BME280;41294;42.666;23.350;2023-08-08T02:04:40;94871.59;;;17.25;89.97
55424;BME280;41294;42.666;23.350;2023-08-08T02:07:05;94873.06;;;17.26;89.21
55424;BME280;41294;42.666;23.350;2023-08-08T02:09:31;94866.75;;;17.13;90.29
55424;BME280;41294;42.666;23.350;2023-08-08T02:11:56;94871.63;;;17.20;90.83
55424;BME280;41294;42.666;23.350;2023-08-08T02:14:21;94874.97;;;17.15;90.86
55424;BME280;41294;42.666;23.350;2023-08-08T02:16:47;94874.97;;;17.09;91.16
55424;BME280;41294;42.666;23.350;2023-08-08T02:19:12;94874.31;;;17.36;90.02
55424;BME280;41294;42.666;23.350;2023-08-08T02:21:38;94880.56;;;17.22;89.79
55424;BME280;41294;42.666;23.350;2023-08-08T02:24:03;94885.63;;;17.15;90.39
55424;BME280;41294;42.666;23.350;2023-08-08T02:26:29;94892.94;;;17.31;89.82
55424;BME280;41294;42.666;23.350;2023-08-08T02:28:54;94897.06;;;17.32;89.19
55424;BME280;41294;42.666;23.350;2023-08-08T02:31:19;94897.00;;;17.15;89.57
55424;BME280;41294;42.666;23.350;2023-08-08T02:33:49;94906.44;;;17.11;89.78
55424;BME280;41294;42.666;23.350;2023-08-08T02:36:16;94899.16;;;17.11;90.67
55424;BME280;41294;42.666;23.350;2023-08-08T02:38:42;94901.31;;;17.02;91.12
55424;BME280;41294;42.666;23.350;2023-08-08T02:41:07;94891.66;;;17.10;90.75
55424;BME280;41294;42.666;23.350;2023-08-08T02:43:32;94896.25;;;17.09;90.52
55424;BME280;41294;42.666;23.350;2023-08-08T02:45:58;94900.84;;;17.03;91.24
55424;BME280;41294;42.666;23.350;2023-08-08T02:48:23;94914.66;;;17.18;90.69
55424;BME280;41294;42.666;23.350;2023-08-08T02:50:49;94923.38;;;17.13;90.66
55424;BME280;41294;42.666;23.350;2023-08-08T02:53:14;94921.91;;;17.18;90.54
55424;BME280;41294;42.666;23.350;2023-08-08T02:55:39;94919.72;;;17.16;90.86
55424;BME280;41294;42.666;23.350;2023-08-08T02:58:05;94926.50;;;17.17;91.09
55424;BME280;41294;42.666;23.350;2023-08-08T03:00:30;94926.28;;;17.15;90.84
55424;BME280;41294;42.666;23.350;2023-08-08T03:02:56;94935.72;;;17.27;90.45
55424;BME280;41294;42.666;23.350;2023-08-08T03:05:21;94930.38;;;17.16;90.49
55424;BME280;41294;42.666;23.350;2023-08-08T03:07:47;94931.81;;;17.17;90.92
55424;BME280;41294;42.666;23.350;2023-08-08T03:10:12;94920.47;;;17.17;90.02
55424;BME280;41294;42.666;23.350;2023-08-08T03:12:38;94921.41;;;17.08;90.67
55424;BME280;41294;42.666;23.350;2023-08-08T03:15:05;94922.13;;;17.03;91.36
55424;BME280;41294;42.666;23.350;2023-08-08T03:17:30;94923.81;;;17.06;90.95
55424;BME280;41294;42.666;23.350;2023-08-08T03:19:56;94930.09;;;17.03;90.91
55424;BME280;41294;42.666;23.350;2023-08-08T03:22:21;94937.38;;;17.14;90.18
55424;BME280;41294;42.666;23.350;2023-08-08T03:24:46;94929.13;;;17.12;90.27
55424;BME280;41294;42.666;23.350;2023-08-08T03:27:12;94929.88;;;17.12;89.94
55424;BME280;41294;42.666;23.350;2023-08-08T03:29:37;94926.97;;;17.10;90.47
55424;BME280;41294;42.666;23.350;2023-08-08T03:32:03;94933.25;;;17.13;90.31
55424;BME280;41294;42.666;23.350;2023-08-08T03:34:29;94936.13;;;17.04;90.69
55424;BME280;41294;42.666;23.350;2023-08-08T03:36:55;94940.81;;;17.20;90.41
55424;BME280;41294;42.666;23.350;2023-08-08T03:39:21;94941.69;;;17.00;91.35
55424;BME280;41294;42.666;23.350;2023-08-08T03:41:46;94948.47;;;17.07;91.01
55424;BME280;41294;42.666;23.350;2023-08-08T03:44:12;94942.94;;;17.10;90.37
55424;BME280;41294;42.666;23.350;2023-08-08T03:46:38;94943.91;;;17.18;90.33
55424;BME280;41294;42.666;23.350;2023-08-08T03:49:03;94945.16;;;17.23;89.94
55424;BME280;41294;42.666;23.350;2023-08-08T03:51:29;94937.13;;;17.17;89.62
55424;BME280;41294;42.666;23.350;2023-08-08T03:53:54;94943.22;;;17.23;89.17
55424;BME280;41294;42.666;23.350;2023-08-08T03:56:20;94936.72;;;17.30;88.91
55424;BME280;41294;42.666;23.350;2023-08-08T03:58:45;94940.31;;;17.21;89.51
55424;BME280;41294;42.666;23.350;2023-08-08T04:01:10;94935.25;;;17.23;89.48
55424;BME280;41294;42.666;23.350;2023-08-08T04:03:36;94940.06;;;17.25;89.35
55424;BME280;41294;42.666;23.350;2023-08-08T04:06:02;94944.91;;;17.26;89.14
55424;BME280;41294;42.666;23.350;2023-08-08T04:08:28;94946.38;;;17.27;88.91
55424;BME280;41294;42.666;23.350;2023-08-08T04:10:53;94959.25;;;17.29;88.74
55424;BME280;41294;42.666;23.350;2023-08-08T04:13:19;94965.47;;;17.26;88.73
55424;BME280;41294;42.666;23.350;2023-08-08T04:15:44;94973.31;;;17.40;87.95
55424;BME280;41294;42.666;23.350;2023-08-08T04:18:10;94975.97;;;17.40;87.48
55424;BME280;41294;42.666;23.350;2023-08-08T04:20:36;94979.63;;;17.48;87.38
55424;BME280;41294;42.666;23.350;2023-08-08T04:23:01;94979.34;;;17.46;86.99
55424;BME280;41294;42.666;23.350;2023-08-08T04:25:27;94982.03;;;17.51;86.62
55424;BME280;41294;42.666;23.350;2023-08-08T04:27:53;94988.22;;;17.27;87.97
55424;BME280;41294;42.666;23.350;2023-08-08T04:30:19;94993.34;;;17.30;88.58
55424;BME280;41294;42.666;23.350;2023-08-08T04:32:44;94987.03;;;17.33;88.23
55424;BME280;41294;42.666;23.350;2023-08-08T04:35:10;94990.97;;;17.43;88.19
55424;BME280;41294;42.666;23.350;2023-08-08T04:37:35;94998.00;;;17.51;87.37
55424;BME280;41294;42.666;23.350;2023-08-08T04:40:01;94996.09;;;17.63;87.25
55424;BME280;41294;42.666;23.350;2023-08-08T04:42:26;94991.28;;;17.67;87.29
55424;BME280;41294;42.666;23.350;2023-08-08T04:44:52;94990.31;;;17.81;85.65
55424;BME280;41294;42.666;23.350;2023-08-08T04:47:17;94995.41;;;17.79;84.86
55424;BME280;41294;42.666;23.350;2023-08-08T04:49:42;94987.66;;;17.81;84.97
55424;BME280;41294;42.666;23.350;2023-08-08T04:52:08;94978.94;;;17.91;83.48
55424;BME280;41294;42.666;23.350;2023-08-08T04:54:33;94981.69;;;18.24;82.25
55424;BME280;41294;42.666;23.350;2023-08-08T04:56:58;94975.34;;;18.54;80.68
55424;BME280;41294;42.666;23.350;2023-08-08T04:59:24;94992.78;;;18.66;79.99
55424;BME280;41294;42.666;23.350;2023-08-08T05:01:49;95000.06;;;18.49;80.71
55424;BME280;41294;42.666;23.350;2023-08-08T05:04:14;95002.00;;;18.54;79.84
55424;BME280;41294;42.666;23.350;2023-08-08T05:06:40;95007.81;;;18.58;80.09
55424;BME280;41294;42.666;23.350;2023-08-08T05:09:05;95022.31;;;18.90;77.90
55424;BME280;41294;42.666;23.350;2023-08-08T05:11:35;95029.09;;;19.70;74.90
55424;BME280;41294;42.666;23.350;2023-08-08T05:14:01;95028.63;;;20.46;71.15
55424;BME280;41294;42.666;23.350;2023-08-08T05:16:27;95043.09;;;20.62;70.55
55424;BME280;41294;42.666;23.350;2023-08-08T05:18:53;95046.63;;;21.47;67.71
55424;BME280;41294;42.666;23.350;2023-08-08T05:21:21;95045.19;;;21.46;65.79
55424;BME280;41294;42.666;23.350;2023-08-08T05:23:46;95055.88;;;21.46;66.33
55424;BME280;41294;42.666;23.350;2023-08-08T05:26:11;95054.53;;;22.00;63.96
55424;BME280;41294;42.666;23.350;2023-08-08T05:28:37;95051.31;;;21.64;65.00
55424;BME280;41294;42.666;23.350;2023-08-08T05:31:03;95055.16;;;21.27;65.63
55424;BME280;41294;42.666;23.350;2023-08-08T05:33:28;95055.38;;;21.05;66.88
55424;BME280;41294;42.666;23.350;2023-08-08T05:35:53;95056.13;;;21.90;64.51
55424;BME280;41294;42.666;23.350;2023-08-08T05:38:19;95067.97;;;22.81;61.36
55424;BME280;41294;42.666;23.350;2023-08-08T05:40:44;95071.88;;;23.37;58.96
55424;BME280;41294;42.666;23.350;2023-08-08T05:43:09;95074.75;;;23.65;57.50
55424;BME280;41294;42.666;23.350;2023-08-08T05:45:35;95070.09;;;23.91;57.10
55424;BME280;41294;42.666;23.350;2023-08-08T05:48:00;95075.75;;;24.01;56.82
55424;BME280;41294;42.666;23.350;2023-08-08T05:50:29;95083.28;;;24.15;56.04
55424;BME280;41294;42.666;23.350;2023-08-08T05:52:54;95087.09;;;22.90;59.11
55424;BME280;41294;42.666;23.350;2023-08-08T05:55:20;95079.19;;;23.23;58.64
55424;BME280;41294;42.666;23.350;2023-08-08T05:57:45;95082.28;;;23.66;56.69
55424;BME280;41294;42.666;23.350;2023-08-08T06:00:11;95077.81;;;24.41;54.02
55424;BME280;41294;42.666;23.350;2023-08-08T06:02:37;95091.63;;;23.91;53.77
55424;BME280;41294;42.666;23.350;2023-08-08T06:05:04;95110.59;;;23.16;56.73
55424;BME280;41294;42.666;23.350;2023-08-08T06:07:30;95117.25;;;23.92;55.20
55424;BME280;41294;42.666;23.350;2023-08-08T06:09:55;95102.72;;;24.21;54.87
55424;BME280;41294;42.666;23.350;2023-08-08T06:12:20;95094.88;;;24.56;53.15
55424;BME280;41294;42.666;23.350;2023-08-08T06:14:46;95105.03;;;24.17;54.37
55424;BME280;41294;42.666;23.350;2023-08-08T06:17:11;95096.28;;;23.78;55.60
55424;BME280;41294;42.666;23.350;2023-08-08T06:19:37;95094.31;;;23.26;57.43
55424;BME280;41294;42.666;23.350;2023-08-08T06:22:02;95097.19;;;24.06;54.89
55424;BME280;41294;42.666;23.350;2023-08-08T06:24:28;95083.09;;;24.46;53.30
55424;BME280;41294;42.666;23.350;2023-08-08T06:26:54;95087.91;;;25.01;52.64
55424;BME280;41294;42.666;23.350;2023-08-08T06:29:19;95090.84;;;24.50;53.52
55424;BME280;41294;42.666;23.350;2023-08-08T06:31:45;95096.34;;;25.46;50.72
55424;BME280;41294;42.666;23.350;2023-08-08T06:34:10;95096.41;;;25.33;50.86
55424;BME280;41294;42.666;23.350;2023-08-08T06:36:35;95100.28;;;25.45;49.99
55424;BME280;41294;42.666;23.350;2023-08-08T06:39:01;95094.16;;;26.08;48.47
55424;BME280;41294;42.666;23.350;2023-08-08T06:41:26;95095.84;;;26.26;47.74
55424;BME280;41294;42.666;23.350;2023-08-08T06:43:52;95088.63;;;25.78;48.00
55424;BME280;41294;42.666;23.350;2023-08-08T06:46:17;95079.44;;;26.24;46.85
55424;BME280;41294;42.666;23.350;2023-08-08T06:48:46;95089.44;;;26.44;46.17
55424;BME280;41294;42.666;23.350;2023-08-08T06:51:12;95090.28;;;26.39;46.73
55424;BME280;41294;42.666;23.350;2023-08-08T06:53:37;95090.94;;;25.46;48.64
55424;BME280;41294;42.666;23.350;2023-08-08T06:56:03;95088.03;;;24.22;49.89
55424;BME280;41294;42.666;23.350;2023-08-08T06:58:28;95090.72;;;24.09;49.68
55424;BME280;41294;42.666;23.350;2023-08-08T07:00:54;95104.53;;;23.28;51.14
55424;BME280;41294;42.666;23.350;2023-08-08T07:03:19;95089.38;;;23.82;49.39
55424;BME280;41294;42.666;23.350;2023-08-08T07:05:45;95084.88;;;24.31;48.36
55424;BME280;41294;42.666;23.350;2023-08-08T07:08:10;95084.34;;;25.27;45.71
55424;BME280;41294;42.666;23.350;2023-08-08T07:10:36;95088.47;;;25.07;44.69
55424;BME280;41294;42.666;23.350;2023-08-08T07:13:02;95085.75;;;25.20;44.49
55424;BME280;41294;42.666;23.350;2023-08-08T07:15:27;95091.50;;;25.04;43.66
55424;BME280;41294;42.666;23.350;2023-08-08T07:17:53;95094.88;;;25.45;43.64
55424;BME280;41294;42.666;23.350;2023-08-08T07:20:19;95093.56;;;25.94;43.21
55424;BME280;41294;42.666;23.350;2023-08-08T07:22:44;95088.19;;;26.02;42.70
55424;BME280;41294;42.666;23.350;2023-08-08T07:25:10;95096.28;;;26.52;42.02
55424;BME280;41294;42.666;23.350;2023-08-08T07:27:37;95077.03;;;26.63;41.32
55424;BME280;41294;42.666;23.350;2023-08-08T07:30:04;95087.69;;;26.83;40.60
55424;BME280;41294;42.666;23.350;2023-08-08T07:32:29;95091.34;;;25.85;41.69
55424;BME280;41294;42.666;23.350;2023-08-08T07:34:55;95089.25;;;25.99;41.37
55424;BME280;41294;42.666;23.350;2023-08-08T07:37:20;95097.97;;;25.77;42.40
55424;BME280;41294;42.666;23.350;2023-08-08T07:39:49;95096.16;;;26.15;41.08
55424;BME280;41294;42.666;23.350;2023-08-08T07:42:16;95094.16;;;26.58;40.45
55424;BME280;41294;42.666;23.350;2023-08-08T07:44:41;95088.19;;;26.52;39.98
55424;BME280;41294;42.666;23.350;2023-08-08T07:47:06;95093.69;;;26.32;40.80
55424;BME280;41294;42.666;23.350;2023-08-08T07:49:32;95098.63;;;26.48;39.60
55424;BME280;41294;42.666;23.350;2023-08-08T07:51:57;95098.66;;;26.63;39.52
55424;BME280;41294;42.666;23.350;2023-08-08T07:54:23;95094.75;;;27.09;39.34
55424;BME280;41294;42.666;23.350;2023-08-08T07:56:48;95084.63;;;26.94;39.21
55424;BME280;41294;42.666;23.350;2023-08-08T07:59:13;95088.97;;;27.27;39.11
55424;BME280;41294;42.666;23.350;2023-08-08T08:01:39;95096.53;;;27.21;38.31
55424;BME280;41294;42.666;23.350;2023-08-08T08:04:04;95088.59;;;26.93;39.40
55424;BME280;41294;42.666;23.350;2023-08-08T08:06:30;95087.50;;;27.26;39.26
55424;BME280;41294;42.666;23.350;2023-08-08T08:08:55;95085.25;;;27.92;37.45
55424;BME280;41294;42.666;23.350;2023-08-08T08:11:20;95083.97;;;27.93;37.12
55424;BME280;41294;42.666;23.350;2023-08-08T08:13:46;95077.09;;;27.15;38.33
55424;BME280;41294;42.666;23.350;2023-08-08T08:16:11;95089.88;;;27.07;38.66
55424;BME280;41294;42.666;23.350;2023-08-08T08:18:36;95092.94;;;27.26;37.65
55424;BME280;41294;42.666;23.350;2023-08-08T08:21:02;95088.22;;;27.49;36.87
55424;BME280;41294;42.666;23.350;2023-08-08T08:23:27;95091.06;;;27.58;37.03
55424;BME280;41294;42.666;23.350;2023-08-08T08:25:53;95079.41;;;27.34;37.83
55424;BME280;41294;42.666;23.350;2023-08-08T08:28:18;95090.59;;;27.38;37.98
55424;BME280;41294;42.666;23.350;2023-08-08T08:30:43;95087.84;;;27.45;38.83
55424;BME280;41294;42.666;23.350;2023-08-08T08:33:09;95088.56;;;27.53;38.56
55424;BME280;41294;42.666;23.350;2023-08-08T08:35:35;95081.00;;;27.59;38.21
55424;BME280;41294;42.666;23.350;2023-08-08T08:38:01;95088.56;;;27.53;38.99
55424;BME280;41294;42.666;23.350;2023-08-08T08:40:28;95087.88;;;28.07;37.86
55424;BME280;41294;42.666;23.350;2023-08-08T08:42:54;95088.16;;;27.79;38.21
55424;BME280;41294;42.666;23.350;2023-08-08T08:45:20;95080.91;;;27.96;37.82
55424;BME280;41294;42.666;23.350;2023-08-08T08:47:48;95083.41;;;28.02;37.63
55424;BME280;41294;42.666;23.350;2023-08-08T08:50:15;95079.91;;;27.54;37.20
55424;BME280;41294;42.666;23.350;2023-08-08T08:52:42;95088.56;;;28.15;37.11
55424;BME280;41294;42.666;23.350;2023-08-08T08:55:08;95090.03;;;27.47;37.16
55424;BME280;41294;42.666;23.350;2023-08-08T08:57:34;95095.59;;;27.56;38.08
55424;BME280;41294;42.666;23.350;2023-08-08T08:59:59;95088.25;;;27.12;38.36
55424;BME280;41294;42.666;23.350;2023-08-08T09:02:25;95096.50;;;26.91;39.51
55424;BME280;41294;42.666;23.350;2023-08-08T09:04:51;95105.84;;;27.80;37.87
55424;BME280;41294;42.666;23.350;2023-08-08T09:07:18;95088.34;;;27.73;38.13
55424;BME280;41294;42.666;23.350;2023-08-08T09:09:45;95095.44;;;26.94;39.55
55424;BME280;41294;42.666;23.350;2023-08-08T09:12:11;95091.88;;;27.07;38.45
55424;BME280;41294;42.666;23.350;2023-08-08T09:14:40;95083.16;;;27.53;38.29
55424;BME280;41294;42.666;23.350;2023-08-08T09:17:13;95079.47;;;27.88;37.74
55424;BME280;41294;42.666;23.350;2023-08-08T09:19:42;95081.28;;;27.93;37.20
55424;BME280;41294;42.666;23.350;2023-08-08T09:22:09;95099.56;;;27.55;37.78
55424;BME280;41294;42.666;23.350;2023-08-08T09:24:38;95096.19;;;27.02;38.52
55424;BME280;41294;42.666;23.350;2023-08-08T09:27:06;95097.63;;;27.18;38.53
55424;BME280;41294;42.666;23.350;2023-08-08T09:29:33;95089.25;;;26.57;38.92
55424;BME280;41294;42.666;23.350;2023-08-08T09:31:58;95089.31;;;26.94;38.34
55424;BME280;41294;42.666;23.350;2023-08-08T09:34:25;95102.28;;;26.95;38.65
55424;BME280;41294;42.666;23.350;2023-08-08T09:36:52;95101.59;;;27.25;38.09
55424;BME280;41294;42.666;23.350;2023-08-08T09:39:18;95097.06;;;27.27;38.05
55424;BME280;41294;42.666;23.350;2023-08-08T09:41:46;95101.03;;;27.26;37.46
55424;BME280;41294;42.666;23.350;2023-08-08T09:44:11;95092.53;;;27.59;37.69
55424;BME280;41294;42.666;23.350;2023-08-08T09:46:37;95094.56;;;27.14;38.07
55424;BME280;41294;42.666;23.350;2023-08-08T09:49:03;95101.56;;;27.54;37.43
55424;BME280;41294;42.666;23.350;2023-08-08T09:51:29;95104.47;;;27.04;38.10
55424;BME280;41294;42.666;23.350;2023-08-08T09:53:56;95098.31;;;26.96;38.25
55424;BME280;41294;42.666;23.350;2023-08-08T09:56:23;95091.47;;;27.25;37.71
55424;BME280;41294;42.666;23.350;2023-08-08T09:58:48;95099.41;;;27.46;36.92
55424;BME280;41294;42.666;23.350;2023-08-08T10:01:15;95086.97;;;26.83;37.22
55424;BME280;41294;42.666;23.350;2023-08-08T10:03:41;95096.47;;;26.54;38.59
55424;BME280;41294;42.666;23.350;2023-08-08T10:06:08;95086.09;;;27.03;37.61
55424;BME280;41294;42.666;23.350;2023-08-08T10:08:34;95095.63;;;27.04;38.24
55424;BME280;41294;42.666;23.350;2023-08-08T10:11:01;95075.44;;;26.97;37.41
55424;BME280;41294;42.666;23.350;2023-08-08T10:13:27;95087.03;;;26.33;38.96
55424;BME280;41294;42.666;23.350;2023-08-08T10:15:54;95088.56;;;26.71;38.31
55424;BME280;41294;42.666;23.350;2023-08-08T10:18:23;95082.84;;;27.04;38.29
55424;BME280;41294;42.666;23.350;2023-08-08T10:20:50;95088.97;;;26.97;37.80
55424;BME280;41294;42.666;23.350;2023-08-08T10:23:19;95083.00;;;26.76;38.14
55424;BME280;41294;42.666;23.350;2023-08-08T10:25:50;95085.38;;;27.32;38.01
55424;BME280;41294;42.666;23.350;2023-08-08T10:28:19;95088.56;;;27.53;37.69
55424;BME280;41294;42.666;23.350;2023-08-08T10:31:02;95089.31;;;27.46;37.67
55424;BME280;41294;42.666;23.350;2023-08-08T10:33:40;95085.53;;;27.34;37.68
55424;BME280;41294;42.666;23.350;2023-08-08T10:36:07;95078.84;;;27.43;37.91
55424;BME280;41294;42.666;23.350;2023-08-08T10:38:44;95081.22;;;27.16;37.33
55424;BME280;41294;42.666;23.350;2023-08-08T10:41:13;95072.03;;;27.27;37.35
55424;BME280;41294;42.666;23.350;2023-08-08T10:43:47;95066.88;;;27.75;36.74
55424;BME280;41294;42.666;23.350;2023-08-08T10:46:13;95061.78;;;27.87;37.27
55424;BME280;41294;42.666;23.350;2023-08-08T10:48:50;95057.53;;;27.54;37.50
55424;BME280;41294;42.666;23.350;2023-08-08T10:51:16;95057.19;;;27.50;37.98
55424;BME280;41294;42.666;23.350;2023-08-08T10:53:43;95049.63;;;26.59;39.26
55424;BME280;41294;42.666;23.350;2023-08-08T10:56:13;95053.84;;;26.10;39.99
55424;BME280;41294;42.666;23.350;2023-08-08T10:58:46;95057.22;;;26.46;39.51
55424;BME280;41294;42.666;23.350;2023-08-08T11:01:12;95055.78;;;26.67;38.91
55424;BME280;41294;42.666;23.350;2023-08-08T11:03:40;95060.88;;;27.15;37.56
55424;BME280;41294;42.666;23.350;2023-08-08T11:06:10;95049.31;;;26.85;38.56
55424;BME280;41294;42.666;23.350;2023-08-08T11:08:37;95052.19;;;26.72;38.23
55424;BME280;41294;42.666;23.350;2023-08-08T11:11:06;95047.59;;;26.22;39.65
55424;BME280;41294;42.666;23.350;2023-08-08T11:13:31;95055.59;;;26.58;38.93
55424;BME280;41294;42.666;23.350;2023-08-08T11:15:57;95059.19;;;26.53;39.50
55424;BME280;41294;42.666;23.350;2023-08-08T11:18:22;95053.78;;;26.60;38.39
55424;BME280;41294;42.666;23.350;2023-08-08T11:20:49;95048.41;;;26.75;38.29
55424;BME280;41294;42.666;23.350;2023-08-08T11:23:15;95046.59;;;26.92;39.15
55424;BME280;41294;42.666;23.350;2023-08-08T11:25:42;95047.31;;;27.38;37.94
55424;BME280;41294;42.666;23.350;2023-08-08T11:28:09;95044.25;;;27.34;37.59
55424;BME280;41294;42.666;23.350;2023-08-08T11:30:37;95039.22;;;26.78;38.69
55424;BME280;41294;42.666;23.350;2023-08-08T11:33:03;95041.38;;;26.72;38.58
55424;BME280;41294;42.666;23.350;2023-08-08T11:35:30;95061.03;;;26.87;38.18
55424;BME280;41294;42.666;23.350;2023-08-08T11:37:57;95040.66;;;26.71;38.79
55424;BME280;41294;42.666;23.350;2023-08-08T11:40:24;95047.53;;;27.02;37.80
55424;BME280;41294;42.666;23.350;2023-08-08T11:42:51;95038.69;;;27.09;38.47
55424;BME280;41294;42.666;23.350;2023-08-08T11:45:18;95037.97;;;27.09;37.93
55424;BME280;41294;42.666;23.350;2023-08-08T11:47:44;95044.06;;;27.39;37.63
55424;BME280;41294;42.666;23.350;2023-08-08T11:50:10;95035.56;;;27.35;37.88
55424;BME280;41294;42.666;23.350;2023-08-08T11:52:41;95034.88;;;27.27;37.76
55424;BME280;41294;42.666;23.350;2023-08-08T11:55:08;95030.53;;;27.47;38.40
55424;BME280;41294;42.666;23.350;2023-08-08T11:57:36;95037.94;;;27.24;38.73
55424;BME280;41294;42.666;23.350;2023-08-08T12:00:10;95033.06;;;27.37;37.80
55424;BME280;41294;42.666;23.350;2023-08-08T12:02:42;95033.63;;;27.28;38.49
55424;BME280;41294;42.666;23.350;2023-08-08T12:05:09;95023.56;;;27.06;38.13
55424;BME280;41294;42.666;23.350;2023-08-08T12:07:36;95019.56;;;26.92;39.22
55424;BME280;41294;42.666;23.350;2023-08-08T12:10:05;95008.94;;;26.94;38.85
55424;BME280;41294;42.666;23.350;2023-08-08T12:12:31;95010.19;;;27.08;38.95
55424;BME280;41294;42.666;23.350;2023-08-08T12:15:04;95006.41;;;26.81;38.90
55424;BME280;41294;42.666;23.350;2023-08-08T12:17:30;95001.41;;;26.70;39.48
55424;BME280;41294;42.666;23.350;2023-08-08T12:19:59;95001.38;;;27.08;39.23
55424;BME280;41294;42.666;23.350;2023-08-08T12:22:25;94996.16;;;26.87;38.81
55424;BME280;41294;42.666;23.350;2023-08-08T12:24:50;94996.69;;;26.63;39.22
55424;BME280;41294;42.666;23.350;2023-08-08T12:27:15;95008.03;;;26.55;39.17
55424;BME280;41294;42.666;23.350;2023-08-08T12:29:41;94994.91;;;26.73;39.35
55424;BME280;41294;42.666;23.350;2023-08-08T12:32:06;94999.22;;;26.76;39.55
55424;BME280;41294;42.666;23.350;2023-08-08T12:34:34;95003.31;;;26.33;40.38
55424;BME280;41294;42.666;23.350;2023-08-08T12:37:00;94999.22;;;26.47;39.64
55424;BME280;41294;42.666;23.350;2023-08-08T12:39:26;94992.16;;;26.21;39.76
55424;BME280;41294;42.666;23.350;2023-08-08T12:41:52;94995.94;;;26.26;39.79
55424;BME280;41294;42.666;23.350;2023-08-08T12:44:18;94988.38;;;26.32;40.09
55424;BME280;41294;42.666;23.350;2023-08-08T12:46:43;94983.91;;;26.42;39.54
55424;BME280;41294;42.666;23.350;2023-08-08T12:49:08;94986.56;;;26.34;40.74